KDMO

Sedalia Regional Airport

Sedalia, Missouri, USA
METAR KDMO 210653Z AUTO 18007KT 10SM OVC007 19/19 A3003 RMK AO2 SLP162 T01890189 $
Observed Flight Rules
May-21 @ 06:53 UTC (25 minutes ago) Instrument Flight Rules
Wind Visibility Clouds
180° at 7 knots 10 miles
  • Overcast at 700' AGL
Temperatures Readings
Current 19°C / 66°F
Dewpoint 19°C / 66°F
Humidity 100%
Altimeter 30.03" Hg
Pressure 1016.2 hPa
Elevation 274
METAR KDMO 210653Z AUTO 18007KT 10SM OVC007 19/19 A3003 RMK AO2 SLP162 T01890189 $
Observed Flight Rules
May-21 @ 06:53 UTC
(25 minutes ago)
IFR
Wind Visibility
180° at 7 knots 10 miles
Clouds
  • Overcast at 700' AGL
Temperature Dewpoint
19°C / 66°F 19°C / 66°F
Humidity Altimeter Pressure
100% 30.03" Hg 1016.2 hPa